Appling, GA

12:41 AM EST on February 01, 2015 (GMT -0500)
Morris Callaway Rd | Change Station
CLOSE
Current Station
Personal Weather Station
Location: Appling, GA
Elevation: 456 ft
Nearby Weather Stations

Elev 456 ft 33.54 °N, 82.35 °W | Updated 1 minute ago

Mostly Cloudy
Mostly Cloudy
43.2 °F
Feels Like 43 °F
N
1.7
Wind Variable Wind from SSE

Today
High -- | Low -- °F
--% Chance of Precip.
Yesterday
High -- | Low -- °F
Precip. -- in
7:25 AM 6:00 PM
Waxing Gibbous, 93% visible
Pressure 30.34 in
Visibility 10.0 miles
Clouds Clear
Windchill 43 °F
Dew Point 23 °F
Humidity 44%
Rainfall 0.00 in
Snow Depth Not available.
UV 0 out of 12
Pollen 3.60 out of 12
Air Quality Not available.
Flu Activity Not available.
METAR KHQU 010515Z AUTO 00000KT 10SM CLR 08/M02 A3034 RMK AO1 T00801017

More Conditions Fewer Conditions

Pressure 30.34 in
Visibility 10.0 miles
Clouds Clear
Windchill 43 °F
Dew Point 23 °F
Humidity 44%
Rainfall 0.00 in
Snow Depth Not available.
UV 0 out of 12
Pollen 3.60 out of 12
Air Quality Not available.
Flu Activity Not available.
METAR KHQU 010515Z AUTO 00000KT 10SM CLR 08/M02 A3034 RMK AO1 T00801017

More Conditions Fewer Conditions

10-Day Weather Forecast

Almanac

Astronomy

Feb. 01, 2015 Rise Set
Actual Time
Civil Twilight
Nautical Twilight
Astronomical Twilight
Moon
Length of Visible Light
Length of Day
Tomorrow will be .
, % of the Moon is Illuminated

Today's Extremes

State Highs State Lows

Community

WunderPhotos

Upload Photos

1,792,316 photos uploaded!

WunderBlogs® & News

Nearby

Air Quality

  Air Quality AQ Index Pollutant
Not available.

Snow Depth

Station Depth Elevation

Earthquake Activity

City Distance Mag. Time & Date
Minimum magnitude displayed is 2.5.

Coastal Water Temperatures

Place Temperature

Nearby Weather Stations